createdAt,value
2023-05-22T00:00:00.637Z,71.2
2023-05-22T00:01:00.602Z,71.2
2023-05-22T00:02:00.642Z,71.1
2023-05-22T00:03:00.897Z,71.2
2023-05-22T00:04:00.668Z,71.8
2023-05-22T00:05:00.684Z,71.8
2023-05-22T00:06:00.661Z,71.8
2023-05-22T00:07:00.629Z,71.8
2023-05-22T00:08:00.615Z,72.1
2023-05-22T00:09:00.673Z,72.4
2023-05-22T00:10:00.651Z,72.7
2023-05-22T00:11:00.620Z,72.4
2023-05-22T00:12:00.617Z,72.7
2023-05-22T00:13:00.617Z,73
2023-05-22T00:14:00.638Z,72.7
2023-05-22T00:15:00.639Z,72.7
2023-05-22T00:16:00.625Z,72.4
2023-05-22T00:17:00.674Z,72.7
2023-05-22T00:18:00.656Z,72.4
2023-05-22T00:19:00.724Z,72.4
2023-05-22T00:20:00.667Z,72.4
2023-05-22T00:21:00.619Z,72.4
2023-05-22T00:22:00.625Z,72.3
2023-05-22T00:23:00.632Z,71.7
2023-05-22T00:24:00.660Z,71.7
2023-05-22T00:25:00.636Z,71.4
2023-05-22T00:26:00.635Z,71.1
2023-05-22T00:27:00.634Z,71.1
2023-05-22T00:28:00.646Z,71.1
2023-05-22T00:29:00.664Z,71.1
2023-05-22T00:30:00.656Z,71.4
2023-05-22T00:31:00.654Z,71.7
2023-05-22T00:32:00.666Z,72.3
2023-05-22T00:33:00.700Z,72
2023-05-22T00:34:00.693Z,72
2023-05-22T00:35:00.642Z,72
2023-05-22T00:36:00.654Z,71.7
2023-05-22T00:37:00.668Z,71.7
2023-05-22T00:38:00.648Z,73
2023-05-22T00:39:00.652Z,72.3
2023-05-22T00:40:00.705Z,72.3
2023-05-22T00:41:00.699Z,72.3
2023-05-22T00:42:00.679Z,72.3
2023-05-22T00:43:00.661Z,72.6
2023-05-22T00:44:00.660Z,72.9
2023-05-22T00:45:00.668Z,72.9
2023-05-22T00:46:00.677Z,72.9
2023-05-22T00:47:00.692Z,72.9
2023-05-22T00:48:00.710Z,72.9
2023-05-22T00:49:00.675Z,73.2
2023-05-22T00:50:00.694Z,72.9
2023-05-22T00:51:00.674Z,72.9
2023-05-22T00:52:00.682Z,73.2
2023-05-22T00:53:00.664Z,73.5
2023-05-22T00:54:00.678Z,73.5
2023-05-22T00:55:00.670Z,73.8
2023-05-22T00:56:00.666Z,74.1
2023-05-22T00:57:00.705Z,74.1
2023-05-22T00:58:00.692Z,74.1
2023-05-22T00:59:00.685Z,74.1
2023-05-22T01:00:00.700Z,74.7
2023-05-22T01:01:00.705Z,74.7
2023-05-22T01:02:00.707Z,74.7
2023-05-22T01:03:00.778Z,75
2023-05-22T01:04:00.756Z,75.3
2023-05-22T01:05:00.669Z,75.3
2023-05-22T01:06:00.681Z,75.7
2023-05-22T01:07:00.668Z,76
2023-05-22T01:08:00.675Z,76
2023-05-22T01:09:00.697Z,76.2
2023-05-22T01:10:00.687Z,76.3
2023-05-22T01:11:00.693Z,76.6
2023-05-22T01:12:00.696Z,76.6
2023-05-22T01:13:00.692Z,76.6
2023-05-22T01:14:00.679Z,76.6
2023-05-22T01:15:00.709Z,76.6
2023-05-22T01:16:00.735Z,76.6
2023-05-22T01:17:00.694Z,77.2
2023-05-22T01:18:00.711Z,77.3
2023-05-22T01:19:00.719Z,77.2
2023-05-22T01:20:00.700Z,77.2
2023-05-22T01:21:00.674Z,77.2
2023-05-22T01:22:00.696Z,77.9
2023-05-22T01:23:00.712Z,77.9
2023-05-22T01:24:00.742Z,78.2
2023-05-22T01:25:00.715Z,78.2
2023-05-22T01:26:00.735Z,78.5
2023-05-22T01:27:00.712Z,78.5
2023-05-22T01:28:00.726Z,78.5
2023-05-22T01:29:00.727Z,78.8
2023-05-22T01:30:00.724Z,78.8
2023-05-22T01:31:00.679Z,79.2
2023-05-22T01:32:00.657Z,79.2
2023-05-22T01:33:00.667Z,79.1
2023-05-22T01:34:00.730Z,79.1
2023-05-22T01:35:00.557Z,78.8
2023-05-22T01:36:00.530Z,79.1
2023-05-22T01:37:00.518Z,79.1
2023-05-22T01:38:00.476Z,79.2
2023-05-22T01:39:00.465Z,78.8
2023-05-22T01:40:00.432Z,78.8
2023-05-22T01:41:00.383Z,78.8
2023-05-22T01:42:00.367Z,79.2
2023-05-22T01:43:00.342Z,79.1
2023-05-22T01:44:00.346Z,79.1
2023-05-22T01:45:00.363Z,79.2
2023-05-22T01:46:00.388Z,79.2
2023-05-22T01:47:00.340Z,79.1
2023-05-22T01:48:00.412Z,79.2
2023-05-22T01:49:00.346Z,79.2
2023-05-22T01:50:00.373Z,79.1
2023-05-22T01:51:00.345Z,79.2
2023-05-22T01:52:00.351Z,79.2
2023-05-22T01:53:00.349Z,79.1
2023-05-22T01:54:00.350Z,79.2
2023-05-22T01:55:00.356Z,79.1
2023-05-22T01:56:00.352Z,79.1
2023-05-22T01:57:00.351Z,79.2
2023-05-22T01:58:00.392Z,78.8
2023-05-22T01:59:00.367Z,78.8
2023-05-22T02:00:00.353Z,78.5
2023-05-22T02:01:01.078Z,78.5
2023-05-22T02:02:00.927Z,78.5
2023-05-22T02:03:00.952Z,78.5
2023-05-22T02:04:00.866Z,78.2
2023-05-22T02:05:00.877Z,78.2
2023-05-22T02:06:00.871Z,78.2
2023-05-22T02:07:00.860Z,78.2
2023-05-22T02:08:00.910Z,78.5
2023-05-22T02:09:00.864Z,78.5
2023-05-22T02:10:00.965Z,78.2
2023-05-22T02:11:00.876Z,78.2
2023-05-22T02:12:00.872Z,78.2
2023-05-22T02:13:00.868Z,78.2
2023-05-22T02:14:00.871Z,77.9
2023-05-22T02:15:00.868Z,78.2
2023-05-22T02:16:00.900Z,78.2
2023-05-22T02:17:00.899Z,78.2
2023-05-22T02:18:00.890Z,78.2
2023-05-22T02:19:00.880Z,78.5
2023-05-22T02:20:00.893Z,78.2
2023-05-22T02:21:00.879Z,77.9
2023-05-22T02:22:00.890Z,78.2
2023-05-22T02:23:00.891Z,78.2
2023-05-22T02:24:00.899Z,78.5
2023-05-22T02:25:00.883Z,78.5
2023-05-22T02:26:00.881Z,78.5
2023-05-22T02:27:00.887Z,78.5
2023-05-22T02:28:00.894Z,78.8
2023-05-22T02:29:00.890Z,79.2
2023-05-22T02:30:00.943Z,79.1
2023-05-22T02:31:00.904Z,79.1
2023-05-22T02:32:00.893Z,79.2
2023-05-22T02:33:00.921Z,79.1
2023-05-22T02:34:00.887Z,79.1
2023-05-22T02:35:00.898Z,79.1
2023-05-22T02:36:00.898Z,79.4
2023-05-22T02:37:00.881Z,79.4
2023-05-22T02:38:00.904Z,79.4
2023-05-22T02:39:00.897Z,79.1
2023-05-22T02:40:00.977Z,79.1
2023-05-22T02:41:00.900Z,79.1
2023-05-22T02:42:00.910Z,79.2
2023-05-22T02:43:00.914Z,79.1
2023-05-22T02:44:00.908Z,79.1
2023-05-22T02:45:00.932Z,79.1
2023-05-22T02:46:01.061Z,79.1
2023-05-22T02:47:01.082Z,78.8
2023-05-22T02:48:00.972Z,78.5
2023-05-22T02:49:00.914Z,78.5
2023-05-22T02:50:01.064Z,78.5
2023-05-22T02:51:00.927Z,78.5
2023-05-22T02:52:00.924Z,78.5
2023-05-22T02:53:00.913Z,78.2
2023-05-22T02:54:00.914Z,78.5
2023-05-22T02:55:00.938Z,77.9
2023-05-22T02:56:00.992Z,77.9
2023-05-22T02:57:00.924Z,77.6
2023-05-22T02:58:00.935Z,77.6
2023-05-22T02:59:00.936Z,77.3
2023-05-22T03:00:01.119Z,77.9
2023-05-22T03:01:00.939Z,77.9
2023-05-22T03:02:01.097Z,77.6
2023-05-22T03:03:01.025Z,77.9
2023-05-22T03:04:00.978Z,77.3
2023-05-22T03:05:01.031Z,76.9
2023-05-22T03:06:00.987Z,76.6
2023-05-22T03:07:00.929Z,76.7
2023-05-22T03:08:00.934Z,76.6
2023-05-22T03:09:00.929Z,76.6
2023-05-22T03:10:01.014Z,76.7
2023-05-22T03:11:00.952Z,76.6
2023-05-22T03:12:00.962Z,77.3
2023-05-22T03:13:00.974Z,76.6
2023-05-22T03:14:00.956Z,76.7
2023-05-22T03:15:00.980Z,76.6
2023-05-22T03:16:00.979Z,76.7
2023-05-22T03:17:00.945Z,76.6
2023-05-22T03:18:00.998Z,76.7
2023-05-22T03:19:00.964Z,76.3
2023-05-22T03:20:00.948Z,76
2023-05-22T03:21:00.958Z,76.7
2023-05-22T03:22:00.951Z,76.6
2023-05-22T03:23:00.936Z,76.7
2023-05-22T03:24:00.987Z,77.3
2023-05-22T03:25:00.953Z,77
2023-05-22T03:26:00.960Z,77.3
2023-05-22T03:27:00.952Z,77.3
2023-05-22T03:28:00.948Z,77.3
2023-05-22T03:29:01.032Z,77.3
2023-05-22T03:30:00.971Z,77.3
2023-05-22T03:31:00.969Z,77.2
2023-05-22T03:32:00.961Z,77.2
2023-05-22T03:33:00.974Z,76.6
2023-05-22T03:34:01.200Z,76.6
2023-05-22T03:35:00.968Z,76.6
2023-05-22T03:36:00.965Z,76.9
2023-05-22T03:37:01.030Z,77.3
2023-05-22T03:38:00.989Z,77.5
2023-05-22T03:39:00.978Z,77.2
2023-05-22T03:40:01.108Z,77.6
2023-05-22T03:41:00.954Z,77.2
2023-05-22T03:42:00.989Z,77.2
2023-05-22T03:43:00.988Z,77.6
2023-05-22T03:44:00.970Z,77.2
2023-05-22T03:45:00.976Z,76.9
2023-05-22T03:46:00.995Z,76.6
2023-05-22T03:47:00.959Z,76.9
2023-05-22T03:48:01.029Z,77.2
2023-05-22T03:49:01.003Z,76.9
2023-05-22T03:50:01.074Z,76.6
2023-05-22T03:51:00.971Z,76.6
2023-05-22T03:52:01.026Z,76.9
2023-05-22T03:53:01.013Z,76.9
2023-05-22T03:54:01.015Z,77.5
2023-05-22T03:55:00.995Z,77.8
2023-05-22T03:56:01.040Z,77.8
2023-05-22T03:57:01.004Z,77.8
2023-05-22T03:58:01.028Z,77.8
2023-05-22T03:59:00.996Z,77.8
2023-05-22T04:00:01.040Z,77.8
2023-05-22T04:01:01.057Z,78.4
2023-05-22T04:02:01.247Z,78.1
2023-05-22T04:03:01.256Z,78.4
2023-05-22T04:04:01.003Z,79.1
2023-05-22T04:05:01.036Z,78.7
2023-05-22T04:06:00.997Z,78.7
2023-05-22T04:07:00.984Z,78.4
2023-05-22T04:08:00.992Z,78.4
2023-05-22T04:09:01.031Z,78.1
2023-05-22T04:10:01.023Z,77.8
2023-05-22T04:11:00.991Z,77.8
2023-05-22T04:12:00.993Z,77.8
2023-05-22T04:13:00.982Z,78.1
2023-05-22T04:14:01.015Z,77.8
2023-05-22T04:15:01.004Z,77.8
2023-05-22T04:16:01.043Z,77.8
2023-05-22T04:17:01.002Z,77.8
2023-05-22T04:18:01.079Z,77.8
2023-05-22T04:19:01.037Z,77.8
2023-05-22T04:20:01.017Z,77.8
2023-05-22T04:21:01.013Z,77.8
2023-05-22T04:22:01.026Z,77.8
2023-05-22T04:23:01.001Z,77.8
2023-05-22T04:24:01.007Z,77.4
2023-05-22T04:25:01.035Z,77.4
2023-05-22T04:26:01.013Z,77.5
2023-05-22T04:27:01.025Z,77.5
2023-05-22T04:28:01.007Z,77.1
2023-05-22T04:29:01.015Z,77.1
2023-05-22T04:30:01.034Z,77.1
2023-05-22T04:31:01.038Z,77.1
2023-05-22T04:32:01.018Z,77.1
2023-05-22T04:33:01.044Z,76.8
2023-05-22T04:34:01.015Z,76.8
2023-05-22T04:35:01.019Z,76.8
2023-05-22T04:36:01.029Z,76.5
2023-05-22T04:37:01.027Z,76.5
2023-05-22T04:38:01.035Z,76.8
2023-05-22T04:39:01.060Z,77.1
2023-05-22T04:40:01.049Z,76.8
2023-05-22T04:41:01.014Z,76.8
2023-05-22T04:42:01.069Z,76.5
2023-05-22T04:43:01.042Z,76.5
2023-05-22T04:44:01.026Z,76.5
2023-05-22T04:45:01.036Z,76.5
2023-05-22T04:46:01.041Z,76.5
2023-05-22T04:47:01.052Z,76.5
2023-05-22T04:48:01.046Z,77.5
2023-05-22T04:49:01.035Z,77.8
2023-05-22T04:50:01.019Z,77.8
2023-05-22T04:51:01.037Z,77.1
2023-05-22T04:52:01.045Z,77.1
2023-05-22T04:53:01.033Z,76.8
2023-05-22T04:54:01.026Z,76.8
2023-05-22T04:55:02.314Z,77.1
2023-05-22T04:56:01.040Z,77.1
2023-05-22T04:57:01.030Z,77.8
2023-05-22T04:58:01.067Z,76.8
2023-05-22T04:59:01.048Z,77.2
2023-05-22T05:00:01.057Z,77.1
2023-05-22T05:01:01.100Z,77.2
2023-05-22T05:02:01.033Z,77.8
2023-05-22T05:03:01.106Z,77.2
2023-05-22T05:04:01.194Z,77.2
2023-05-22T05:05:01.067Z,77.2
2023-05-22T05:06:01.036Z,77.2
2023-05-22T05:07:01.082Z,77.5
2023-05-22T05:08:01.049Z,77.5
2023-05-22T05:09:01.068Z,78.4
2023-05-22T05:10:01.085Z,78.8
2023-05-22T05:11:01.049Z,78.7
2023-05-22T05:12:01.044Z,77.8
2023-05-22T05:13:01.060Z,77.8
2023-05-22T05:14:01.051Z,77.5
2023-05-22T05:15:01.084Z,77.2
2023-05-22T05:16:01.057Z,77.2
2023-05-22T05:17:01.185Z,77.5
2023-05-22T05:18:01.082Z,77.2
2023-05-22T05:19:01.094Z,77.5
2023-05-22T05:20:01.095Z,76.9
2023-05-22T05:21:01.073Z,77.2
2023-05-22T05:22:01.079Z,77.2
2023-05-22T05:23:01.073Z,77.9
2023-05-22T05:24:01.077Z,77.9
2023-05-22T05:25:01.112Z,77.9
2023-05-22T05:26:01.075Z,77.6
2023-05-22T05:27:01.087Z,77.3
2023-05-22T05:28:01.086Z,77.3
2023-05-22T05:29:01.090Z,76.9
2023-05-22T05:30:01.077Z,77
2023-05-22T05:31:01.081Z,77
2023-05-22T05:32:01.087Z,76.7
2023-05-22T05:33:01.083Z,76.7
2023-05-22T05:34:01.072Z,76.4
2023-05-22T05:35:01.101Z,75.8
2023-05-22T05:36:01.082Z,74.8
2023-05-22T05:37:01.079Z,77
2023-05-22T05:38:01.093Z,76.7
2023-05-22T05:39:01.136Z,76.4
2023-05-22T05:40:01.113Z,76.1
2023-05-22T05:41:01.091Z,76.7
2023-05-22T05:42:01.092Z,77.4
2023-05-22T05:43:01.118Z,76.7
2023-05-22T05:44:01.093Z,76.8
2023-05-22T05:45:01.094Z,76.8
2023-05-22T05:46:01.110Z,76.8
2023-05-22T05:47:01.156Z,77.4
2023-05-22T05:48:01.153Z,76.4
2023-05-22T05:49:01.109Z,76.1
2023-05-22T05:50:01.094Z,77.4
2023-05-22T05:51:01.114Z,75.5
2023-05-22T05:52:01.104Z,76.2
2023-05-22T05:53:01.100Z,74.9
2023-05-22T05:54:01.113Z,75.2
2023-05-22T05:55:01.136Z,76.2
2023-05-22T05:56:01.107Z,75.9
2023-05-22T05:57:01.130Z,75.9
2023-05-22T05:58:01.138Z,75.9
2023-05-22T05:59:01.112Z,76.5
2023-05-22T06:00:01.153Z,76.2
2023-05-22T06:01:01.097Z,75.9
2023-05-22T06:02:01.105Z,75.6
2023-05-22T06:03:01.296Z,74.6
2023-05-22T06:04:01.240Z,75.9
2023-05-22T06:05:01.196Z,75.6
2023-05-22T06:06:01.169Z,75.6
2023-05-22T06:07:01.132Z,75
2023-05-22T06:08:01.111Z,75
2023-05-22T06:09:01.160Z,75
2023-05-22T06:10:01.180Z,74.3
2023-05-22T06:11:01.312Z,74.4
2023-05-22T06:12:01.110Z,75
2023-05-22T06:13:01.127Z,74.7
2023-05-22T06:14:01.114Z,75.3
2023-05-22T06:15:01.153Z,75
2023-05-22T06:16:03.545Z,75
2023-05-22T06:17:01.177Z,74.4
2023-05-22T06:18:01.167Z,73.8
2023-05-22T06:19:01.181Z,73.8
2023-05-22T06:20:01.142Z,74.4
2023-05-22T06:21:01.133Z,74.4
2023-05-22T06:22:01.125Z,73.8
2023-05-22T06:23:01.145Z,73.8
2023-05-22T06:24:01.134Z,73.8
2023-05-22T06:25:01.210Z,74.1
2023-05-22T06:26:01.147Z,73.8
2023-05-22T06:27:01.128Z,73.8
2023-05-22T06:28:01.145Z,73.8
2023-05-22T06:29:01.151Z,73.2
2023-05-22T06:30:01.174Z,72.9
2023-05-22T06:31:01.150Z,73.8
2023-05-22T06:32:01.187Z,73.2
2023-05-22T06:33:01.305Z,73.2
2023-05-22T06:34:01.243Z,73.9
2023-05-22T06:35:01.142Z,73.2
2023-05-22T06:36:01.146Z,72.6
2023-05-22T06:37:01.142Z,72.9
2023-05-22T06:38:01.176Z,72
2023-05-22T06:39:01.169Z,72
2023-05-22T06:40:01.168Z,71.6
2023-05-22T06:41:01.154Z,72
2023-05-22T06:42:01.158Z,72
2023-05-22T06:43:01.149Z,72
2023-05-22T06:44:01.151Z,71.4
2023-05-22T06:45:01.159Z,71.7
2023-05-22T06:46:01.211Z,70.7
2023-05-22T06:47:01.145Z,71.1
2023-05-22T06:48:01.191Z,70.7
2023-05-22T06:49:01.148Z,71.4
2023-05-22T06:50:01.156Z,71.4
2023-05-22T06:51:01.156Z,71.4
2023-05-22T06:52:02.750Z,71.2
2023-05-22T06:53:01.160Z,71.4
2023-05-22T06:54:01.177Z,70.5
2023-05-22T06:55:01.156Z,70.8
2023-05-22T06:56:01.175Z,70.8
2023-05-22T06:57:01.212Z,71.1
2023-05-22T06:58:01.192Z,71.1
2023-05-22T06:59:01.162Z,70.8
2023-05-22T07:00:01.231Z,70.2
2023-05-22T07:01:01.229Z,70.2
2023-05-22T07:02:01.173Z,70.2
2023-05-22T07:03:01.198Z,69.5
2023-05-22T07:04:01.197Z,70.2
2023-05-22T07:05:01.168Z,70.2
2023-05-22T07:06:01.186Z,68.9
2023-05-22T07:07:01.222Z,69.6
2023-05-22T07:08:01.182Z,69.9
2023-05-22T07:09:01.171Z,68.9
2023-05-22T07:10:01.196Z,69.6
2023-05-22T07:11:01.191Z,68.3
2023-05-22T07:12:01.192Z,69
2023-05-22T07:13:01.182Z,68.3
2023-05-22T07:14:01.196Z,68.3
2023-05-22T07:15:01.188Z,68.7
2023-05-22T07:16:01.252Z,69
2023-05-22T07:17:01.185Z,67.7
2023-05-22T07:18:01.234Z,68.1
2023-05-22T07:19:01.229Z,68.4
2023-05-22T07:20:01.203Z,67.7
2023-05-22T07:21:01.193Z,68
2023-05-22T07:22:01.217Z,67.4
2023-05-22T07:23:01.189Z,67.8
2023-05-22T07:24:01.183Z,67.9
2023-05-22T07:25:01.193Z,67.4
2023-05-22T07:26:01.197Z,67.1
2023-05-22T07:27:01.202Z,67.2
2023-05-22T07:28:01.214Z,66.5
2023-05-22T07:29:01.185Z,66.5
2023-05-22T07:30:01.209Z,65.9
2023-05-22T07:31:01.192Z,65.9
2023-05-22T07:32:00.429Z,65.2
2023-05-22T07:33:00.432Z,65.9
2023-05-22T07:34:00.417Z,65.6
2023-05-22T07:35:00.410Z,65.9
2023-05-22T07:36:00.421Z,65.6
2023-05-22T07:37:00.436Z,65.6
2023-05-22T07:38:00.414Z,65.9
2023-05-22T07:39:00.480Z,65.3
2023-05-22T07:40:00.440Z,65.3
2023-05-22T07:41:00.411Z,65
2023-05-22T07:42:01.644Z,64.4
2023-05-22T07:43:00.435Z,64.7
2023-05-22T07:44:00.417Z,64.7
2023-05-22T07:45:00.465Z,64.1
2023-05-22T07:46:00.594Z,63.4
2023-05-22T07:47:00.477Z,63.7
2023-05-22T07:48:00.549Z,63.7
2023-05-22T07:49:00.493Z,62.1
2023-05-22T07:50:00.488Z,62.8
2023-05-22T07:51:00.430Z,63.4
2023-05-22T07:52:00.434Z,64.1
2023-05-22T07:53:00.526Z,63.8
2023-05-22T07:54:00.636Z,63.8
2023-05-22T07:55:00.430Z,62.8
2023-05-22T07:56:00.432Z,62.2
2023-05-22T07:57:00.450Z,61.5
2023-05-22T07:58:00.489Z,60.9
2023-05-22T07:59:00.460Z,60.9
2023-05-22T08:00:00.515Z,62.2
2023-05-22T08:01:00.462Z,62.9
2023-05-22T08:02:00.465Z,62.9
2023-05-22T08:03:00.515Z,62.9
2023-05-22T08:04:00.766Z,62.6
2023-05-22T08:05:00.616Z,62.6
2023-05-22T08:06:00.457Z,62.3
2023-05-22T08:07:00.466Z,63.2
2023-05-22T08:08:00.440Z,62.3
2023-05-22T08:09:00.475Z,63.3
2023-05-22T08:10:00.447Z,62.3
2023-05-22T08:11:03.795Z,62
2023-05-22T08:12:00.437Z,62.7
2023-05-22T08:13:00.441Z,62.7
2023-05-22T08:14:00.438Z,61.1
2023-05-22T08:15:00.449Z,61.1
2023-05-22T08:16:01.548Z,60.4
2023-05-22T08:17:00.478Z,60.4
2023-05-22T08:18:00.485Z,61.1
2023-05-22T08:19:00.757Z,60.4
2023-05-22T08:20:00.684Z,59.8
2023-05-22T08:21:00.462Z,59.8
2023-05-22T08:22:00.474Z,58.8
2023-05-22T08:23:00.526Z,58.5
2023-05-22T08:24:00.500Z,58.5
2023-05-22T08:25:00.541Z,57.9
2023-05-22T08:26:00.489Z,59.1
2023-05-22T08:27:00.508Z,58.2
2023-05-22T08:28:00.448Z,59.8
2023-05-22T08:29:00.447Z,60.4
2023-05-22T08:30:00.459Z,60.5
2023-05-22T08:31:00.465Z,60.5
2023-05-22T08:32:00.564Z,59.2
2023-05-22T08:33:00.521Z,58.2
2023-05-22T08:34:00.463Z,57.9
2023-05-22T08:35:00.488Z,59.2
2023-05-22T08:36:00.459Z,58.6
2023-05-22T08:37:00.467Z,57.3
2023-05-22T08:38:00.469Z,57.6
2023-05-22T08:39:00.460Z,57.2
2023-05-22T08:40:00.497Z,57.2
2023-05-22T08:41:00.472Z,57.9
2023-05-22T08:42:00.464Z,57.2
2023-05-22T08:43:00.484Z,58.6
2023-05-22T08:44:00.473Z,59.2
2023-05-22T08:45:00.535Z,58.5
2023-05-22T08:46:00.497Z,57.3
2023-05-22T08:47:00.500Z,58.9
2023-05-22T08:48:00.475Z,57.9
2023-05-22T08:49:00.496Z,58.6
2023-05-22T08:50:00.544Z,56.6
2023-05-22T08:51:00.512Z,57.3
2023-05-22T08:52:00.509Z,56.6
2023-05-22T08:53:00.496Z,57
2023-05-22T08:54:00.490Z,58
2023-05-22T08:55:00.496Z,57
2023-05-22T08:56:00.505Z,57.6
2023-05-22T08:57:00.492Z,58.3
2023-05-22T08:58:00.633Z,58
2023-05-22T08:59:00.490Z,55.4
2023-05-22T09:00:00.503Z,54.8
2023-05-22T09:01:00.551Z,55.7
2023-05-22T09:02:00.493Z,57.3
2023-05-22T09:03:00.621Z,56
2023-05-22T09:04:00.590Z,57
2023-05-22T09:05:00.549Z,55.4
2023-05-22T09:06:00.506Z,54.1
2023-05-22T09:07:00.512Z,55.4
2023-05-22T09:08:08.339Z,55.7
2023-05-22T09:09:00.487Z,56.7
2023-05-22T09:10:00.564Z,56.4
2023-05-22T09:11:00.528Z,55.1
2023-05-22T09:12:00.543Z,55.4
2023-05-22T09:13:00.524Z,53.5
2023-05-22T09:14:00.494Z,54.8
2023-05-22T09:15:00.506Z,53.5
2023-05-22T09:16:00.506Z,54.2
2023-05-22T09:17:00.534Z,55.1
2023-05-22T09:18:00.569Z,54.2
2023-05-22T09:19:00.551Z,53.5
2023-05-22T09:20:00.511Z,54.8
2023-05-22T09:21:00.575Z,54.3
2023-05-22T09:22:00.513Z,55.2
2023-05-22T09:23:00.536Z,54.5
2023-05-22T09:24:00.543Z,55.2
2023-05-22T09:25:00.562Z,54.9
2023-05-22T09:26:00.558Z,54.2
2023-05-22T09:27:00.509Z,55.5
2023-05-22T09:28:00.537Z,54.9
2023-05-22T09:29:00.599Z,53.9
2023-05-22T09:30:00.534Z,51.6
2023-05-22T09:31:03.189Z,54.2
2023-05-22T09:32:00.517Z,52.3
2023-05-22T09:33:00.585Z,52.9
2023-05-22T09:34:00.529Z,53.3
2023-05-22T09:35:00.541Z,53.6
2023-05-22T09:36:00.520Z,51.6
2023-05-22T09:37:00.529Z,51.7
2023-05-22T09:38:00.541Z,52.3
2023-05-22T09:39:00.538Z,53
2023-05-22T09:40:00.537Z,51
2023-05-22T09:41:00.525Z,50.4
2023-05-22T09:42:00.536Z,51
2023-05-22T09:43:00.583Z,52.3
2023-05-22T09:44:02.173Z,51.7
2023-05-22T09:45:00.547Z,51
2023-05-22T09:46:00.613Z,50.7
2023-05-22T09:47:00.543Z,51.7
2023-05-22T09:48:00.566Z,53
2023-05-22T09:49:00.570Z,50.4
2023-05-22T09:50:00.547Z,50.4
2023-05-22T09:51:00.538Z,51
2023-05-22T09:52:00.549Z,50.4
2023-05-22T09:53:00.549Z,49.1
2023-05-22T09:54:00.556Z,48.4
2023-05-22T09:55:00.553Z,50.1
2023-05-22T09:56:00.598Z,49.1
2023-05-22T09:57:00.577Z,48.5
2023-05-22T09:58:00.579Z,48.8
2023-05-22T09:59:00.560Z,48.5
2023-05-22T10:00:00.588Z,50.4
2023-05-22T10:01:00.555Z,48.5
2023-05-22T10:02:00.613Z,49.1
2023-05-22T10:03:00.583Z,50.4
2023-05-22T10:04:00.580Z,48.8
2023-05-22T10:05:00.601Z,49.8
2023-05-22T10:06:00.592Z,49.1
2023-05-22T10:07:00.564Z,50.1
2023-05-22T10:08:00.563Z,48.8
2023-05-22T10:09:00.556Z,49.2
2023-05-22T10:10:00.560Z,50.4
2023-05-22T10:11:00.560Z,49.8
2023-05-22T10:12:00.605Z,49.2
2023-05-22T10:13:00.557Z,46.9
2023-05-22T10:14:00.569Z,47.9
2023-05-22T10:15:00.576Z,47.2
2023-05-22T10:16:00.625Z,48.5
2023-05-22T10:17:00.575Z,45.9
2023-05-22T10:18:00.605Z,47.2
2023-05-22T10:19:00.612Z,47.6
2023-05-22T10:20:00.602Z,48.5
2023-05-22T10:21:00.597Z,48.5
2023-05-22T10:22:00.568Z,46.6
2023-05-22T10:23:00.597Z,46.6
2023-05-22T10:24:00.579Z,47.9
2023-05-22T10:25:00.582Z,47.3
2023-05-22T10:26:00.580Z,45.3
2023-05-22T10:27:00.594Z,45.6
2023-05-22T10:28:00.582Z,44.6
2023-05-22T10:29:00.583Z,45.9
2023-05-22T10:30:00.587Z,45.9
2023-05-22T10:31:00.607Z,45.3
2023-05-22T10:32:00.581Z,45.3
2023-05-22T10:33:00.623Z,45
2023-05-22T10:34:00.650Z,44.6
2023-05-22T10:35:00.581Z,44.6
2023-05-22T10:36:00.589Z,44
2023-05-22T10:37:13.197Z,44.3
2023-05-22T10:38:00.612Z,45.3
2023-05-22T10:39:00.604Z,47.3
2023-05-22T10:40:00.596Z,47.3
2023-05-22T10:41:00.604Z,45.3
2023-05-22T10:42:00.585Z,46.3
2023-05-22T10:43:00.597Z,44.7
2023-05-22T10:44:00.615Z,44.3
2023-05-22T10:45:00.616Z,43.4
2023-05-22T10:46:00.664Z,44.3
2023-05-22T10:47:00.605Z,43.4
2023-05-22T10:48:00.700Z,44.7
2023-05-22T10:49:00.605Z,44.3
2023-05-22T10:50:00.608Z,43.7
2023-05-22T10:51:00.619Z,43.4
2023-05-22T10:52:00.611Z,43
2023-05-22T10:53:00.610Z,44
2023-05-22T10:54:00.623Z,43.4
2023-05-22T10:55:00.625Z,43.7
2023-05-22T10:56:00.633Z,42.7
2023-05-22T10:57:00.638Z,44
2023-05-22T10:58:00.627Z,43.1
2023-05-22T10:59:00.613Z,44
2023-05-22T11:00:00.642Z,43.4
2023-05-22T11:01:00.611Z,42.7
2023-05-22T11:02:00.728Z,42.7
2023-05-22T11:03:13.511Z,41.4
2023-05-22T11:04:00.651Z,42.1
2023-05-22T11:05:00.667Z,42.1
2023-05-22T11:06:00.624Z,41.4
2023-05-22T11:07:00.630Z,41.8
2023-05-22T11:08:00.621Z,42.4
2023-05-22T11:09:00.646Z,42.1
2023-05-22T11:10:00.689Z,44.4
2023-05-22T11:11:00.653Z,42.8
2023-05-22T11:12:00.652Z,42.8
2023-05-22T11:13:00.645Z,41.8
2023-05-22T11:14:00.652Z,43.4
2023-05-22T11:15:00.641Z,42.8
2023-05-22T11:16:00.655Z,42.8
2023-05-22T11:17:00.710Z,42.1
2023-05-22T11:18:00.685Z,40.8
2023-05-22T11:19:04.612Z,40.5
2023-05-22T11:20:00.735Z,42.1
2023-05-22T11:21:00.663Z,41.8
2023-05-22T11:22:00.668Z,40.8
2023-05-22T11:23:00.641Z,38.9
2023-05-22T11:24:00.640Z,40.8
2023-05-22T11:25:00.653Z,40.2
2023-05-22T11:26:00.645Z,40.2
2023-05-22T11:27:00.648Z,40.2
2023-05-22T11:28:00.648Z,43.1
2023-05-22T11:29:00.658Z,43.1
2023-05-22T11:30:00.677Z,43.1
2023-05-22T11:31:00.684Z,39.9
2023-05-22T11:32:00.661Z,40.8
2023-05-22T11:33:00.709Z,41.5
2023-05-22T11:34:00.664Z,42.8
2023-05-22T11:35:00.670Z,42.2
2023-05-22T11:36:00.674Z,41.5
2023-05-22T11:37:00.680Z,40.9
2023-05-22T11:38:00.666Z,41.5
2023-05-22T11:39:00.653Z,40.2
2023-05-22T11:40:00.688Z,38.6
2023-05-22T11:41:00.661Z,38.9
2023-05-22T11:42:00.665Z,38.9
2023-05-22T11:43:00.692Z,39.6
2023-05-22T11:44:00.699Z,40.5
2023-05-22T11:45:00.677Z,40.2
2023-05-22T11:46:00.719Z,40.2
2023-05-22T11:47:00.664Z,38.9
2023-05-22T11:48:00.720Z,39.2
2023-05-22T11:49:00.666Z,38.9
2023-05-22T11:50:00.702Z,37.6
2023-05-22T11:51:00.689Z,38.9
2023-05-22T11:52:00.675Z,40.9
2023-05-22T11:53:00.764Z,39.6
2023-05-22T11:54:00.685Z,38.3
2023-05-22T11:55:00.706Z,37.6
2023-05-22T11:56:00.686Z,37.6
2023-05-22T11:57:00.675Z,38.3
2023-05-22T11:58:00.677Z,37
2023-05-22T11:59:00.672Z,36.6
2023-05-22T12:00:00.744Z,38.6
2023-05-22T12:01:00.689Z,39.6
2023-05-22T12:02:00.676Z,39.6
2023-05-22T12:03:00.840Z,39.6
2023-05-22T12:04:00.803Z,39.6
2023-05-22T12:05:00.701Z,37.6
2023-05-22T12:06:00.698Z,37.6
2023-05-22T12:07:00.682Z,39.3
2023-05-22T12:08:00.721Z,37.6
2023-05-22T12:09:00.698Z,38.3
2023-05-22T12:10:00.734Z,38.3
2023-05-22T12:11:00.720Z,36.4
2023-05-22T12:12:00.711Z,37
2023-05-22T12:13:00.716Z,36.4
2023-05-22T12:14:00.705Z,36.4
2023-05-22T12:15:00.692Z,36.4
2023-05-22T12:16:00.815Z,36.4
2023-05-22T12:17:00.789Z,37
2023-05-22T12:18:00.710Z,36.4
2023-05-22T12:19:00.831Z,37
2023-05-22T12:20:00.744Z,37.7
2023-05-22T12:21:00.690Z,37
2023-05-22T12:22:00.723Z,37
2023-05-22T12:23:00.708Z,35.7
2023-05-22T12:24:00.694Z,35.1
2023-05-22T12:25:00.704Z,36.4
2023-05-22T12:26:00.744Z,36.1
2023-05-22T12:27:00.695Z,35.7
2023-05-22T12:28:00.703Z,33.8
2023-05-22T12:29:00.713Z,33.8
2023-05-22T12:30:00.750Z,35.8
2023-05-22T12:31:00.705Z,35.8
2023-05-22T12:32:00.754Z,34.4
2023-05-22T12:33:00.741Z,36.4
2023-05-22T12:34:00.704Z,35.1
2023-05-22T12:35:00.755Z,36.7
2023-05-22T12:36:00.703Z,34.5
2023-05-22T12:37:00.741Z,34.8
2023-05-22T12:38:00.706Z,34.5
2023-05-22T12:39:00.724Z,33.8
2023-05-22T12:40:00.725Z,35.8
2023-05-22T12:41:00.728Z,37.1
2023-05-22T12:42:00.722Z,36.1
2023-05-22T12:43:00.717Z,36.8
2023-05-22T12:44:00.727Z,34.5
2023-05-22T12:45:00.906Z,35.1
2023-05-22T12:46:02.731Z,34.5
2023-05-22T12:47:00.731Z,33.8
2023-05-22T12:48:00.748Z,33.8
2023-05-22T12:49:00.720Z,33.8
2023-05-22T12:50:00.751Z,34.4
2023-05-22T12:51:00.713Z,35.4
2023-05-22T12:52:00.727Z,36.4
2023-05-22T12:53:00.725Z,36.4
2023-05-22T12:54:00.734Z,35.1
2023-05-22T12:55:00.754Z,35.7
2023-05-22T12:56:00.741Z,36
2023-05-22T12:57:00.734Z,36.3
2023-05-22T12:58:00.743Z,36.7
2023-05-22T12:59:00.767Z,36.6
2023-05-22T13:00:00.787Z,37.6
2023-05-22T13:01:00.737Z,38.9
2023-05-22T13:02:00.783Z,38.9
2023-05-22T13:03:00.804Z,37.9
2023-05-22T13:04:00.742Z,38.2
2023-05-22T13:05:00.820Z,38.2
2023-05-22T13:06:00.752Z,38.2
2023-05-22T13:07:00.754Z,39.5
2023-05-22T13:08:00.751Z,39.5
2023-05-22T13:09:00.774Z,40.8
2023-05-22T13:10:00.860Z,41.4
2023-05-22T13:11:00.761Z,40.8
2023-05-22T13:12:00.788Z,41.4
2023-05-22T13:13:00.786Z,41.7
2023-05-22T13:14:00.751Z,42.4
2023-05-22T13:15:00.757Z,42.1
2023-05-22T13:16:00.833Z,42.7
2023-05-22T13:17:00.754Z,41.4
2023-05-22T13:18:00.906Z,41.7
2023-05-22T13:19:00.800Z,41.4
2023-05-22T13:20:00.793Z,40.8
2023-05-22T13:21:00.769Z,41.8
2023-05-22T13:22:00.781Z,42.8